Terminal Aerodrome Forecast
Issued by NWS

Home | Current Version | Previous Version | Graphics & Text | Print | Product List | Glossary On
Versions: 1 2 3 4 5 6 7 8 9 10 11 12 13 14 15 16 17 18 19
623
FTUS43 KUNR 161120
TAFGCC
TAF
KGCC 161120Z 1612/1712 33007KT P6SM OVC025
     FM161500 36006KT 2SM -SN OVC005
     FM162100 01008KT 1SM -SN OVC008
     FM170600 02004KT P6SM OVC010
     FM171000 24004KT P6SM BKN010
     FM171100 21004KT P6SM BKN008=

USA.gov is the U.S. government's official web portal to all federal, state and local government web resources and services.